Flight Track Log - Related Links

Times and Time Zones

All times are in EDT time to prevent confusion due to time zone crossing. See the BER8812 flight status page for this flight to view local times or setup timezone preferences in your user account.

Time Position Orientation Groundspeed Altitude Reporting Facility
EDT Latitude Longitude Course Direction KTS MPH feet Rate Location/Type
Wed 03:27:00 PM 51.0059 7.8195 113° Southeast  Level Estimated
Wed 03:28:00 PM 50.9646 7.9688 114° Southeast  Level Estimated
Wed 03:29:00 PM 50.9231 8.1179 114° Southeast  Level Estimated
Wed 03:30:00 PM 50.8815 8.2667 114° Southeast  Level Estimated
Wed 03:31:00 PM 50.8396 8.4152 114° Southeast  Level Estimated
Wed 03:32:00 PM 50.7976 8.5635 114° Southeast  Level Estimated
Wed 03:33:00 PM 50.7554 8.7115 114° Southeast  Level Estimated
Wed 03:34:00 PM 50.7130 8.8592 114° Southeast  Level Estimated
Wed 03:35:00 PM 50.6704 9.0067 114° Southeast  Level Estimated
Wed 03:36:00 PM 50.6276 9.1539 115° Southeast  Level Estimated
Wed 03:37:00 PM 50.5846 9.3008 115° Southeast  Level Estimated
Wed 03:38:00 PM 50.5415 9.4475 115° Southeast  Level Estimated
Wed 03:39:00 PM 50.4982 9.5939 115° Southeast  Level Estimated
Wed 03:40:00 PM 50.4547 9.7400 115° Southeast  Level Estimated
Wed 03:41:00 PM 50.4109 9.8859 115° Southeast  Level Estimated
Wed 03:42:00 PM 50.3671 10.0314 115° Southeast  Level Estimated
Wed 03:43:00 PM 50.3230 10.1768 115° Southeast  Level Estimated
Wed 03:44:00 PM 50.2788 10.3218 115° Southeast  Level Estimated
Wed 03:45:00 PM 50.2343 10.4666 116° Southeast  Level Estimated
Wed 03:46:00 PM 50.1898 10.6111 116° Southeast  Level Estimated
Wed 03:47:00 PM 50.1450 10.7553 116° Southeast  Level Estimated
Wed 03:48:00 PM 50.1000 10.8993 116° Southeast  Level Estimated
Wed 03:49:00 PM 50.0549 11.0430 116° Southeast  Level Estimated
Wed 03:50:00 PM 50.0095 11.1864 116° Southeast  Level Estimated
Wed 03:51:00 PM 49.9641 11.3296 116° Southeast  Level Estimated
Wed 03:52:00 PM 49.9184 11.4724 116° Southeast  Level Estimated
Wed 03:53:00 PM 49.8726 11.6151 116° Southeast  Level Estimated
Wed 03:54:00 PM 49.8265 11.7574 117° Southeast  Level Estimated
Wed 03:55:00 PM 49.7803 11.8995 117° Southeast  Level Estimated
Wed 03:56:00 PM 49.7340 12.0413 117° Southeast  Level Estimated
Wed 03:57:00 PM 49.6874 12.1828 117° Southeast  Level Estimated
Wed 03:58:00 PM 49.6407 12.3240 117° Southeast  Level Estimated
Wed 03:59:00 PM 49.5938 12.4650 117° Southeast  Level Estimated
Wed 04:00:00 PM 49.5468 12.6057 117° Southeast  Level Estimated
Wed 04:01:00 PM 49.4996 12.7462 117° Southeast  Level Estimated
Wed 04:02:00 PM 49.4522 12.8863 117° Southeast  Level Estimated
Wed 04:03:00 PM 49.4046 13.0262 118° Southeast  Level Estimated
Wed 04:04:00 PM 49.3569 13.1659 118° Southeast  Level Estimated
Wed 04:05:00 PM 49.3090 13.3052 118° Southeast  Level Estimated
Wed 04:06:00 PM 49.2609 13.4443 118° Southeast  Level Estimated
Wed 04:07:00 PM 49.2127 13.5831 118° Southeast  Level Estimated
Wed 04:08:00 PM 49.1643 13.7217 118° Southeast  Level Estimated
Wed 04:09:00 PM 49.1157 13.8600 118° Southeast  Level Estimated
Wed 04:10:00 PM 49.0670 13.9979 118° Southeast  Level Estimated
Wed 04:11:00 PM 49.0181 14.1357 118° Southeast  Level Estimated
Wed 04:12:00 PM 48.9691 14.2731 118° Southeast  Level Estimated
Wed 04:13:00 PM 48.9199 14.4103 119° Southeast  Level Estimated
Wed 04:14:00 PM 48.8705 14.5472 119° Southeast  Level Estimated
Wed 04:15:00 PM 48.8209 14.6839 119° Southeast  Level Estimated
Wed 04:16:00 PM 48.7712 14.8203 119° Southeast  Level Estimated
Wed 04:17:00 PM 48.7214 14.9564 119° Southeast  Level Estimated
Wed 04:18:00 PM 48.6714 15.0922 119° Southeast  Level Estimated
Wed 04:19:00 PM 48.6212 15.2278 119° Southeast  Level Estimated
Wed 04:20:00 PM 48.5708 15.3631 119° Southeast  Level Estimated
Wed 04:21:00 PM 48.5203 15.4981 119° Southeast  Level Estimated
Wed 04:22:00 PM 48.4697 15.6329 120° Southeast  Level Estimated
Wed 04:23:00 PM 48.4189 15.7674 120° Southeast  Level Estimated
Wed 04:24:00 PM 48.3679 15.9016 120° Southeast  Level Estimated
Wed 04:25:00 PM 48.3168 16.0355 120° Southeast  Level Estimated
Wed 04:26:00 PM 48.2655 16.1692 120° Southeast  Level Estimated
Wed 04:27:00 PM 48.2140 16.3026 120° Southeast  Level Estimated
Wed 04:28:00 PM 48.1624 16.4358 120° Southeast  Level Estimated
Wed 04:29:00 PM 48.1107 16.5687 120° Southeast  Level Estimated
Wed 04:30:00 PM 48.1103 16.5697 120° Southeast  Level Estimated
Wed 04:31:00 PM 48.1103 16.5697 146° Southeast  Level Estimated
Wed 04:32:00 PM 48.1103 16.5697 146° Southeast  Level Estimated
Wed 04:33:00 PM 48.1103 16.5697 146° Southeast  Level Estimated
Wed 04:34:00 PM 48.1103 16.5697 146° Southeast  Level Estimated
Wed 04:35:00 PM 48.1103 16.5697 146° Southeast  Level Estimated

Login

Don't have an account? Register now (free) for customized features, flight alerts, and more!